createdAt,value
2023-06-07T00:01:58.494Z,82
2023-06-07T00:12:01.101Z,81
2023-06-07T00:32:05.428Z,81
2023-06-07T00:42:07.214Z,81
2023-06-07T00:52:09.045Z,82
2023-06-07T01:02:11.238Z,83
2023-06-07T01:12:13.340Z,83
2023-06-07T01:22:15.980Z,84
2023-06-07T01:32:17.777Z,86
2023-06-07T02:12:36.605Z,89
2023-06-07T02:32:41.191Z,90
2023-06-07T02:52:45.395Z,92
2023-06-07T03:12:50.441Z,98
2023-06-07T03:32:54.861Z,100
2023-06-07T03:53:00.072Z,100
2023-06-07T04:13:04.625Z,100
2023-06-07T04:23:07.014Z,100
2023-06-07T05:03:15.726Z,100
2023-06-07T05:13:18.024Z,100
2023-06-07T05:23:20.567Z,100
2023-06-07T05:33:22.928Z,100
2023-06-07T05:43:24.732Z,100
2023-06-07T05:53:26.585Z,100
2023-06-07T06:03:28.485Z,100
2023-06-07T06:23:33.221Z,100
2023-06-07T08:03:54.978Z,100
2023-06-07T09:04:07.894Z,100
2023-06-07T09:34:13.575Z,100
2023-06-07T10:24:24.922Z,100
2023-06-07T10:54:31.187Z,100
2023-06-07T11:14:36.086Z,100
2023-06-07T11:24:38.076Z,100
2023-06-07T11:54:45.437Z,100
2023-06-07T12:04:47.774Z,100
2023-06-07T12:14:50.279Z,99
2023-06-07T12:24:52.763Z,98
2023-06-07T12:34:54.893Z,97
2023-06-07T12:44:57.069Z,96
2023-06-07T12:54:58.939Z,93
2023-06-07T13:05:01.486Z,92
2023-06-07T13:55:11.920Z,86
2023-06-07T14:05:14.268Z,84
2023-06-07T14:15:16.659Z,80
2023-06-07T14:35:20.200Z,78
2023-06-07T14:45:21.857Z,78
2023-06-07T14:55:23.706Z,75
2023-06-07T15:15:28.147Z,72
2023-06-07T15:25:30.264Z,71
2023-06-07T15:35:32.595Z,72
2023-06-07T15:45:34.869Z,70
2023-06-07T15:55:37.634Z,70
2023-06-07T16:15:41.102Z,71
2023-06-07T16:25:43.350Z,74
2023-06-07T16:35:45.876Z,76
2023-06-07T16:45:48.305Z,76
2023-06-07T16:55:50.160Z,70
2023-06-07T17:05:52.231Z,68
2023-06-07T17:15:54.972Z,69
2023-06-07T17:25:57.297Z,70
2023-06-07T17:35:59.700Z,70
2023-06-07T17:46:01.431Z,72
2023-06-07T17:56:03.179Z,72
2023-06-07T18:06:05.408Z,72
2023-06-07T18:16:08.243Z,70
2023-06-07T18:26:10.414Z,70
2023-06-07T18:36:12.376Z,72
2023-06-07T18:46:15.400Z,73
2023-06-07T19:06:19.742Z,76
2023-06-07T19:16:21.590Z,77
2023-06-07T19:26:23.976Z,77
2023-06-07T19:36:25.657Z,77
2023-06-07T19:46:27.615Z,78
2023-06-07T19:56:29.630Z,78
2023-06-07T20:06:32.254Z,79
2023-06-07T20:16:34.889Z,80
2023-06-07T20:26:36.798Z,81
2023-06-07T20:36:38.994Z,81
2023-06-07T20:46:41.276Z,81
2023-06-07T20:56:42.965Z,82
2023-06-07T21:06:44.684Z,83
2023-06-07T21:16:48.399Z,84
2023-06-07T21:26:49.386Z,85
2023-06-07T21:36:51.114Z,86
2023-06-07T21:46:53.048Z,87
2023-06-07T21:56:54.908Z,90
2023-06-07T22:06:57.184Z,92
2023-06-07T22:16:58.980Z,93
2023-06-07T22:27:01.070Z,92
2023-06-07T22:37:02.974Z,93
2023-06-07T22:57:07.978Z,96
2023-06-07T23:07:10.491Z,97
2023-06-07T23:17:12.422Z,98
2023-06-07T23:27:14.396Z,99
2023-06-07T23:37:17.023Z,99
2023-06-07T23:47:19.057Z,100
2023-06-07T23:57:20.980Z,100
